createdAt,value
2019-03-28T00:01:20.274Z,9.02
2019-03-28T00:03:52.628Z,9.12
2019-03-28T00:06:25.233Z,9.20
2019-03-28T00:08:57.470Z,9.29
2019-03-28T00:11:29.744Z,9.34
2019-03-28T00:14:02.019Z,9.39
2019-03-28T00:16:34.413Z,9.43
2019-03-28T00:19:06.491Z,9.42
2019-03-28T00:21:39.032Z,9.45
2019-03-28T00:24:11.335Z,9.52
2019-03-28T00:26:43.579Z,9.56
2019-03-28T00:29:16.074Z,9.58
2019-03-28T00:31:48.377Z,9.62
2019-03-28T00:34:21.132Z,9.61
2019-03-28T00:36:53.401Z,9.57
2019-03-28T00:39:25.642Z,9.40
2019-03-28T00:41:57.958Z,9.31
2019-03-28T00:44:30.408Z,9.26
2019-03-28T00:47:02.636Z,9.21
2019-03-28T00:49:34.898Z,9.20
2019-03-28T00:52:07.233Z,9.19
2019-03-28T00:54:39.467Z,9.19
2019-03-28T00:57:11.744Z,9.15
2019-03-28T00:59:44.064Z,9.10
2019-03-28T01:02:16.332Z,9.11
2019-03-28T01:04:48.582Z,9.10
2019-03-28T01:07:20.955Z,9.19
2019-03-28T01:09:53.479Z,9.24
2019-03-28T01:12:25.728Z,9.29
2019-03-28T01:14:58.178Z,9.27
2019-03-28T01:17:30.435Z,9.28
2019-03-28T01:20:02.697Z,9.29
2019-03-28T01:22:35.325Z,9.23
2019-03-28T01:25:07.584Z,9.19
2019-03-28T01:27:39.882Z,9.20
2019-03-28T01:30:12.304Z,9.12
2019-03-28T01:32:44.592Z,9.14
2019-03-28T01:35:16.891Z,9.16
2019-03-28T01:37:48.987Z,9.17
2019-03-28T01:40:21.412Z,9.18
2019-03-28T01:42:53.666Z,9.16
2019-03-28T01:45:25.985Z,9.13
2019-03-28T01:47:58.459Z,9.19
2019-03-28T01:50:30.887Z,9.18
2019-03-28T01:53:03.218Z,9.08
2019-03-28T01:55:35.494Z,9.02
2019-03-28T01:58:07.761Z,9.01
2019-03-28T02:00:40.126Z,8.99
2019-03-28T02:03:12.395Z,8.98
2019-03-28T02:05:44.680Z,8.99
2019-03-28T02:08:18.112Z,8.93
2019-03-28T02:10:50.612Z,8.92
2019-03-28T02:13:25.439Z,8.95
2019-03-28T02:15:58.263Z,8.97
2019-03-28T02:18:30.498Z,9.00
2019-03-28T02:21:02.735Z,9.02
2019-03-28T02:23:35.165Z,9.00
2019-03-28T02:26:07.423Z,8.97
2019-03-28T02:28:39.719Z,8.95
2019-03-28T02:31:12.235Z,9.00
2019-03-28T02:33:44.630Z,9.01
2019-03-28T02:36:16.837Z,8.99
2019-03-28T02:38:49.199Z,8.97
2019-03-28T02:41:21.542Z,8.91
2019-03-28T02:43:53.870Z,8.91
2019-03-28T02:46:26.182Z,8.92
2019-03-28T02:48:58.557Z,8.99
2019-03-28T02:51:30.905Z,8.98
2019-03-28T02:54:03.231Z,8.96
2019-03-28T02:56:35.536Z,8.97
2019-03-28T02:59:07.772Z,9.02
2019-03-28T03:01:40.615Z,9.02
2019-03-28T03:04:13.280Z,8.98
2019-03-28T03:06:45.619Z,8.94
2019-03-28T03:09:17.805Z,8.89
2019-03-28T03:11:50.818Z,8.83
2019-03-28T03:14:23.071Z,8.79
2019-03-28T03:16:55.323Z,8.82
2019-03-28T03:19:27.546Z,8.85
2019-03-28T03:21:59.817Z,8.88
2019-03-28T03:24:32.081Z,8.92
2019-03-28T03:27:04.359Z,8.90
2019-03-28T03:29:36.599Z,8.87
2019-03-28T03:32:08.856Z,8.88
2019-03-28T03:34:41.146Z,8.88
2019-03-28T03:37:13.815Z,8.85
2019-03-28T03:39:46.196Z,8.83
2019-03-28T03:42:19.617Z,8.84
2019-03-28T03:44:51.959Z,8.79
2019-03-28T03:47:24.211Z,8.76
2019-03-28T03:49:56.758Z,8.73
2019-03-28T03:52:29.111Z,8.72
2019-03-28T03:55:01.504Z,8.72
2019-03-28T03:57:33.961Z,8.72
2019-03-28T04:00:06.481Z,8.71
2019-03-28T04:02:38.903Z,8.67
2019-03-28T04:05:11.179Z,8.67
2019-03-28T04:07:43.702Z,8.68
2019-03-28T04:10:16.038Z,8.67
2019-03-28T04:12:48.294Z,8.67
2019-03-28T04:15:20.562Z,8.65
2019-03-28T04:17:52.798Z,8.67
2019-03-28T04:20:25.353Z,8.70
2019-03-28T04:22:57.562Z,8.73
2019-03-28T04:25:29.834Z,8.77
2019-03-28T04:28:02.097Z,8.78
2019-03-28T04:30:34.360Z,8.78
2019-03-28T04:33:06.614Z,8.80
2019-03-28T04:35:38.869Z,8.85
2019-03-28T04:38:11.125Z,8.89
2019-03-28T04:40:43.396Z,8.90
2019-03-28T04:43:15.661Z,8.93
2019-03-28T04:45:47.916Z,8.94
2019-03-28T04:48:20.184Z,8.97
2019-03-28T04:50:52.684Z,8.98
2019-03-28T04:53:25.134Z,9.02
2019-03-28T04:55:57.668Z,9.00
2019-03-28T04:58:43.446Z,9.00
2019-03-28T05:01:04.802Z,9.02
2019-03-28T05:03:37.159Z,9.07
2019-03-28T05:06:09.459Z,9.12
2019-03-28T05:08:44.041Z,9.16
2019-03-28T05:11:16.311Z,9.18
2019-03-28T05:13:48.641Z,9.20
2019-03-28T05:16:20.975Z,9.22
2019-03-28T05:18:53.283Z,9.24
2019-03-28T05:21:25.765Z,9.24
2019-03-28T05:23:58.207Z,9.23
2019-03-28T05:26:30.722Z,9.21
2019-03-28T05:29:03.140Z,9.25
2019-03-28T05:31:35.388Z,9.27
2019-03-28T05:34:08.361Z,9.28
2019-03-28T05:36:40.618Z,9.25
2019-03-28T05:39:12.961Z,9.29
2019-03-28T05:41:45.251Z,9.35
2019-03-28T05:44:17.787Z,9.36
2019-03-28T05:46:50.350Z,9.36
2019-03-28T05:49:22.714Z,9.37
2019-03-28T05:51:55.177Z,9.39
2019-03-28T05:57:26.872Z,9.43
2019-03-28T05:59:59.186Z,9.44
2019-03-28T06:02:31.917Z,9.49
2019-03-28T06:05:04.230Z,9.57
2019-03-28T06:07:36.764Z,9.61
2019-03-28T06:10:10.362Z,9.70
2019-03-28T06:12:42.708Z,9.79
2019-03-28T06:15:15.224Z,9.85
2019-03-28T06:17:47.804Z,9.90
2019-03-28T06:20:20.187Z,9.89
2019-03-28T06:22:52.862Z,9.91
2019-03-28T06:25:25.507Z,9.90
2019-03-28T06:27:59.296Z,9.89
2019-03-28T06:31:19.522Z,9.90
2019-03-28T06:33:15.151Z,9.91
2019-03-28T06:35:44.946Z,9.95
2019-03-28T06:38:17.654Z,9.97
2019-03-28T06:40:51.152Z,9.97
2019-03-28T06:43:23.499Z,9.91
2019-03-28T06:45:58.264Z,9.91
2019-03-28T06:48:30.702Z,9.91
2019-03-28T06:51:03.195Z,9.84
2019-03-28T06:53:35.463Z,9.87
2019-03-28T06:56:07.760Z,9.99
2019-03-28T06:58:40.073Z,10.10
2019-03-28T07:01:13.173Z,10.12
2019-03-28T07:03:47.355Z,10.21
2019-03-28T07:06:20.061Z,10.39
2019-03-28T07:08:52.774Z,10.31
2019-03-28T07:11:25.543Z,10.35
2019-03-28T07:13:58.323Z,10.41
2019-03-28T07:16:30.568Z,10.30
2019-03-28T07:19:02.937Z,10.32
2019-03-28T07:21:35.391Z,10.43
2019-03-28T07:24:07.749Z,10.52
2019-03-28T07:26:40.230Z,10.64
2019-03-28T07:29:12.675Z,10.74
2019-03-28T07:31:44.924Z,10.79
2019-03-28T07:34:17.275Z,10.94
2019-03-28T07:36:51.570Z,11.08
2019-03-28T07:39:23.826Z,11.20
2019-03-28T07:41:56.046Z,11.18
2019-03-28T07:44:28.673Z,11.17
2019-03-28T07:47:01.141Z,11.11
2019-03-28T07:49:37.488Z,11.20
2019-03-28T07:52:09.842Z,11.31
2019-03-28T07:54:42.843Z,11.43
2019-03-28T07:57:15.440Z,11.54
2019-03-28T07:59:47.940Z,11.56
2019-03-28T08:02:20.234Z,11.61
2019-03-28T08:04:53.149Z,11.71
2019-03-28T08:07:25.324Z,11.78
2019-03-28T08:09:58.693Z,11.85
2019-03-28T08:12:31.430Z,11.90
2019-03-28T08:15:03.984Z,11.89
2019-03-28T08:17:36.686Z,11.85
2019-03-28T08:20:09.090Z,11.53
2019-03-28T08:22:41.448Z,11.44
2019-03-28T08:25:14.035Z,11.50
2019-03-28T08:27:46.415Z,11.54
2019-03-28T08:30:19.559Z,11.62
2019-03-28T08:32:52.360Z,11.69
2019-03-28T08:35:24.657Z,11.63
2019-03-28T08:37:57.079Z,11.73
2019-03-28T08:40:29.453Z,11.87
2019-03-28T08:43:01.825Z,11.85
2019-03-28T08:45:34.501Z,11.75
2019-03-28T08:48:07.316Z,11.85
2019-03-28T08:50:40.155Z,12.03
2019-03-28T08:53:12.532Z,12.10
2019-03-28T08:55:44.815Z,12.09
2019-03-28T08:58:17.214Z,12.03
2019-03-28T09:00:52.715Z,11.86
2019-03-28T09:03:23.694Z,11.79
2019-03-28T09:05:56.245Z,11.48
2019-03-28T09:08:29.852Z,11.29
2019-03-28T09:11:03.341Z,11.27
2019-03-28T09:13:35.707Z,11.28
2019-03-28T09:16:07.965Z,10.90
2019-03-28T09:18:40.310Z,10.64
2019-03-28T09:21:12.692Z,10.81
2019-03-28T09:23:45.101Z,11.11
2019-03-28T09:26:17.755Z,11.60
2019-03-28T09:28:49.988Z,11.71
2019-03-28T09:31:22.534Z,11.68
2019-03-28T09:33:54.884Z,11.98
2019-03-28T09:36:27.257Z,12.16
2019-03-28T09:39:03.801Z,12.20
2019-03-28T09:41:36.231Z,12.13
2019-03-28T09:44:08.569Z,12.05
2019-03-28T09:46:40.851Z,12.03
2019-03-28T09:49:13.149Z,11.94
2019-03-28T09:51:45.475Z,11.96
2019-03-28T09:54:17.782Z,12.27
2019-03-28T09:56:50.241Z,12.65
2019-03-28T09:59:22.534Z,12.97
2019-03-28T10:01:54.994Z,13.58
2019-03-28T10:04:27.546Z,14.17
2019-03-28T10:07:00.026Z,14.70
2019-03-28T10:09:32.373Z,15.24
2019-03-28T10:12:04.698Z,15.45
2019-03-28T10:14:37.181Z,15.34
2019-03-28T10:17:09.566Z,14.94
2019-03-28T10:19:41.927Z,13.95
2019-03-28T10:22:14.353Z,13.02
2019-03-28T10:24:46.658Z,12.63
2019-03-28T10:27:19.461Z,12.46
2019-03-28T10:29:51.970Z,12.59
2019-03-28T10:32:24.251Z,12.81
2019-03-28T10:34:56.622Z,12.94
2019-03-28T10:37:29.190Z,13.33
2019-03-28T10:40:01.481Z,13.36
2019-03-28T10:42:33.977Z,13.44
2019-03-28T10:45:06.751Z,13.71
2019-03-28T10:47:40.661Z,13.87
2019-03-28T10:50:12.985Z,13.62
2019-03-28T10:52:45.303Z,13.54
2019-03-28T10:55:17.677Z,13.84
2019-03-28T10:57:50.216Z,14.04
2019-03-28T11:00:24.412Z,13.97
2019-03-28T11:02:56.600Z,13.93
2019-03-28T11:05:28.996Z,13.59
2019-03-28T11:08:01.322Z,13.60
2019-03-28T11:10:33.690Z,13.67
2019-03-28T11:13:09.294Z,13.73
2019-03-28T11:15:40.236Z,13.64
2019-03-28T11:18:13.223Z,13.42
2019-03-28T11:20:47.629Z,13.29
2019-03-28T11:23:19.855Z,13.02
2019-03-28T11:25:52.103Z,13.10
2019-03-28T11:28:24.488Z,13.17
2019-03-28T11:30:56.784Z,12.91
2019-03-28T11:33:29.068Z,12.72
2019-03-28T11:36:01.314Z,12.59
2019-03-28T11:38:33.651Z,12.52
2019-03-28T11:41:06.044Z,12.44
2019-03-28T11:43:38.417Z,12.33
2019-03-28T11:46:10.698Z,12.18
2019-03-28T11:48:42.955Z,12.11
2019-03-28T11:51:15.322Z,12.13
2019-03-28T11:53:47.823Z,12.02
2019-03-28T11:56:20.253Z,12.01
2019-03-28T11:58:52.567Z,11.97
2019-03-28T12:01:24.834Z,12.09
2019-03-28T12:03:57.145Z,12.01
2019-03-28T12:06:29.523Z,12.03
2019-03-28T12:09:01.844Z,12.13
2019-03-28T12:11:35.744Z,12.20
2019-03-28T12:14:08.065Z,12.23
2019-03-28T12:16:40.470Z,12.48
2019-03-28T12:19:12.964Z,12.58
2019-03-28T12:21:47.454Z,12.44
2019-03-28T12:24:19.779Z,12.47
2019-03-28T12:26:52.270Z,12.55
2019-03-28T12:29:24.563Z,12.55
2019-03-28T12:31:56.874Z,12.55
2019-03-28T12:34:30.119Z,12.72
2019-03-28T12:37:02.431Z,12.88
2019-03-28T12:39:34.696Z,12.94
2019-03-28T12:44:39.930Z,12.92
2019-03-28T12:47:12.157Z,13.03
2019-03-28T12:49:44.531Z,13.16
2019-03-28T12:52:16.872Z,13.42
2019-03-28T12:54:49.233Z,13.69
2019-03-28T12:57:21.622Z,13.88
2019-03-28T12:59:54.900Z,14.14
2019-03-28T13:02:31.568Z,14.19
2019-03-28T13:05:01.417Z,14.09
2019-03-28T13:07:33.973Z,14.18
2019-03-28T13:10:06.345Z,13.94
2019-03-28T13:12:38.643Z,13.77
2019-03-28T13:15:11.081Z,13.97
2019-03-28T13:17:43.562Z,14.18
2019-03-28T13:20:15.922Z,14.44
2019-03-28T13:22:48.270Z,14.64
2019-03-28T13:25:20.826Z,14.74
2019-03-28T13:27:53.277Z,14.53
2019-03-28T13:30:25.721Z,14.19
2019-03-28T13:32:58.160Z,14.02
2019-03-28T13:35:35.076Z,13.82
2019-03-28T13:38:06.823Z,13.77
2019-03-28T13:40:40.226Z,13.97
2019-03-28T13:43:14.865Z,14.14
2019-03-28T13:45:47.087Z,14.13
2019-03-28T13:48:19.422Z,13.90
2019-03-28T13:50:54.607Z,13.58
2019-03-28T13:53:38.372Z,13.70
2019-03-28T13:55:59.424Z,13.79
2019-03-28T13:58:32.915Z,13.81
2019-03-28T14:01:05.248Z,13.78
2019-03-28T14:03:37.644Z,13.70
2019-03-28T14:06:10.417Z,13.78
2019-03-28T14:08:42.703Z,13.87
2019-03-28T14:11:15.147Z,14.03
2019-03-28T14:13:47.613Z,14.13
2019-03-28T14:16:20.193Z,14.15
2019-03-28T14:18:52.443Z,13.94
2019-03-28T14:21:25.058Z,13.71
2019-03-28T14:23:57.382Z,13.55
2019-03-28T14:26:29.656Z,13.36
2019-03-28T14:29:01.902Z,13.44
2019-03-28T14:31:36.285Z,13.29
2019-03-28T14:34:08.632Z,13.17
2019-03-28T14:36:40.867Z,13.10
2019-03-28T14:39:13.266Z,13.24
2019-03-28T14:41:46.542Z,13.28
2019-03-28T14:44:20.955Z,13.41
2019-03-28T14:46:53.323Z,13.47
2019-03-28T14:49:25.561Z,13.63
2019-03-28T14:51:57.813Z,13.77
2019-03-28T14:54:30.027Z,13.83
2019-03-28T14:57:02.295Z,13.89
2019-03-28T14:59:34.907Z,13.90
2019-03-28T15:02:07.230Z,13.67
2019-03-28T15:04:39.700Z,13.56
2019-03-28T15:07:12.088Z,13.64
2019-03-28T15:09:44.872Z,13.79
2019-03-28T15:12:17.153Z,13.96
2019-03-28T15:14:49.529Z,14.07
2019-03-28T15:17:21.873Z,14.14
2019-03-28T15:19:54.205Z,14.06
2019-03-28T15:22:26.801Z,13.98
2019-03-28T15:24:59.101Z,13.98
2019-03-28T15:27:31.549Z,13.96
2019-03-28T15:30:05.068Z,13.88
2019-03-28T15:32:37.492Z,13.70
2019-03-28T15:35:09.537Z,13.58
2019-03-28T15:37:41.954Z,13.54
2019-03-28T15:40:14.257Z,13.64
2019-03-28T15:42:46.691Z,13.79
2019-03-28T15:45:19.361Z,13.80
2019-03-28T15:47:52.227Z,13.68
2019-03-28T15:50:25.046Z,13.65
2019-03-28T15:52:57.570Z,13.62
2019-03-28T15:55:30.056Z,13.65
2019-03-28T15:58:02.491Z,13.66
2019-03-28T16:00:34.948Z,13.65
2019-03-28T16:03:08.789Z,13.64
2019-03-28T16:05:41.103Z,13.62
2019-03-28T16:08:13.821Z,13.68
2019-03-28T16:10:46.083Z,13.63
2019-03-28T16:13:18.766Z,13.56
2019-03-28T16:15:51.256Z,13.60
2019-03-28T16:18:23.751Z,13.62
2019-03-28T16:20:56.250Z,13.63
2019-03-28T16:23:29.475Z,13.59
2019-03-28T16:26:02.219Z,13.53
2019-03-28T16:28:35.347Z,13.50
2019-03-28T16:31:14.683Z,13.54
2019-03-28T16:33:47.916Z,13.51
2019-03-28T16:36:20.275Z,13.46
2019-03-28T16:38:52.552Z,13.46
2019-03-28T16:41:24.787Z,13.38
2019-03-28T16:43:57.668Z,13.29
2019-03-28T16:46:29.812Z,13.23
2019-03-28T16:49:02.138Z,13.22
2019-03-28T16:51:35.552Z,13.23
2019-03-28T16:54:07.802Z,13.25
2019-03-28T16:56:40.350Z,13.25
2019-03-28T16:59:14.881Z,13.24
2019-03-28T17:01:48.022Z,13.18
2019-03-28T17:04:21.340Z,13.12
2019-03-28T17:06:54.365Z,13.06
2019-03-28T17:09:26.680Z,12.99
2019-03-28T17:12:00.133Z,12.99
2019-03-28T17:14:32.595Z,12.96
2019-03-28T17:17:05.027Z,12.95
2019-03-28T17:19:37.541Z,12.93
2019-03-28T17:22:09.913Z,12.92
2019-03-28T17:24:43.256Z,12.86
2019-03-28T17:27:15.925Z,12.80
2019-03-28T17:29:48.322Z,12.74
2019-03-28T17:32:20.669Z,12.70
2019-03-28T17:34:53.008Z,12.68
2019-03-28T17:37:25.899Z,12.67
2019-03-28T17:39:58.398Z,12.66
2019-03-28T17:42:30.886Z,12.62
2019-03-28T17:45:03.534Z,12.53
2019-03-28T17:47:37.171Z,12.40
2019-03-28T17:50:09.764Z,12.20
2019-03-28T17:52:49.191Z,11.97
2019-03-28T17:55:21.975Z,11.73
2019-03-28T17:57:54.153Z,11.49
2019-03-28T18:00:28.051Z,11.29
2019-03-28T18:03:09.206Z,11.12
2019-03-28T18:05:35.398Z,10.96
2019-03-28T18:08:08.383Z,10.82
2019-03-28T18:10:40.930Z,10.70
2019-03-28T18:13:14.535Z,10.56
2019-03-28T18:15:47.769Z,10.43
2019-03-28T18:18:20.700Z,10.32
2019-03-28T18:20:53.337Z,10.23
2019-03-28T18:23:26.006Z,10.16
2019-03-28T18:25:59.627Z,10.07
2019-03-28T18:28:32.694Z,10.00
2019-03-28T18:31:05.098Z,9.94
2019-03-28T18:33:37.601Z,9.88
2019-03-28T18:36:10.065Z,9.80
2019-03-28T18:38:42.560Z,9.72
2019-03-28T18:41:15.301Z,9.66
2019-03-28T18:43:47.856Z,9.59
2019-03-28T18:46:20.543Z,9.53
2019-03-28T18:48:53.472Z,9.48
2019-03-28T18:51:26.099Z,9.45
2019-03-28T18:53:58.691Z,9.46
2019-03-28T18:56:31.348Z,9.46
2019-03-28T18:59:07.262Z,9.42
2019-03-28T19:01:40.081Z,9.37
2019-03-28T19:04:12.566Z,9.34
2019-03-28T19:06:44.977Z,9.33
2019-03-28T19:09:17.313Z,9.31
2019-03-28T19:11:50.057Z,9.29
2019-03-28T19:14:22.418Z,9.34
2019-03-28T19:16:55.334Z,9.47
2019-03-28T19:19:38.812Z,9.61
2019-03-28T19:22:01.936Z,9.75
2019-03-28T19:24:34.071Z,9.88
2019-03-28T19:27:06.388Z,10.02
2019-03-28T19:29:38.627Z,10.18
2019-03-28T19:32:10.945Z,10.31
2019-03-28T19:34:43.323Z,10.42
2019-03-28T19:37:16.693Z,10.52
2019-03-28T19:39:48.771Z,10.63
2019-03-28T19:42:22.581Z,10.71
2019-03-28T19:44:55.005Z,10.80
2019-03-28T19:47:28.729Z,10.85
2019-03-28T19:50:03.376Z,10.84
2019-03-28T19:52:35.724Z,10.81
2019-03-28T19:55:09.363Z,10.80
2019-03-28T19:57:43.257Z,10.75
2019-03-28T20:00:15.600Z,10.66
2019-03-28T20:02:47.930Z,10.60
2019-03-28T20:05:20.215Z,10.55
2019-03-28T20:07:54.361Z,10.47
2019-03-28T20:10:26.582Z,10.42
2019-03-28T20:12:59.993Z,10.36
2019-03-28T20:15:32.299Z,10.29
2019-03-28T20:18:04.527Z,10.19
2019-03-28T20:20:36.804Z,10.07
2019-03-28T20:23:09.157Z,9.95
2019-03-28T20:25:42.950Z,9.86
2019-03-28T20:28:16.263Z,9.71
2019-03-28T20:30:48.814Z,9.56
2019-03-28T20:33:21.222Z,9.43
2019-03-28T20:36:06.316Z,9.31
2019-03-28T20:38:27.747Z,9.20
2019-03-28T20:41:00.090Z,9.11
2019-03-28T20:43:32.702Z,9.09
2019-03-28T20:46:05.386Z,9.06
2019-03-28T20:48:38.942Z,8.99
2019-03-28T20:51:11.507Z,8.89
2019-03-28T20:53:43.842Z,8.83
2019-03-28T20:56:16.235Z,8.77
2019-03-28T20:58:48.577Z,8.71
2019-03-28T21:01:20.844Z,8.70
2019-03-28T21:03:53.128Z,8.67
2019-03-28T21:06:26.456Z,8.63
2019-03-28T21:09:00.251Z,8.58
2019-03-28T21:11:32.942Z,8.55
2019-03-28T21:14:05.462Z,8.50
2019-03-28T21:16:38.168Z,8.47
2019-03-28T21:19:10.897Z,8.43
2019-03-28T21:21:44.583Z,8.39
2019-03-28T21:24:18.227Z,8.35
2019-03-28T21:26:50.870Z,8.32
2019-03-28T21:29:23.189Z,8.29
2019-03-28T21:31:57.893Z,8.25
2019-03-28T21:34:30.447Z,8.21
2019-03-28T21:37:06.245Z,8.18
2019-03-28T21:39:39.887Z,8.15
2019-03-28T21:42:12.129Z,8.13
2019-03-28T21:44:44.839Z,8.10
2019-03-28T21:47:17.307Z,8.07
2019-03-28T21:49:49.675Z,8.07
2019-03-28T21:52:22.384Z,8.06
2019-03-28T21:54:54.970Z,8.03
2019-03-28T21:57:27.400Z,8.02
2019-03-28T21:59:59.879Z,7.98
2019-03-28T22:02:32.226Z,7.94
2019-03-28T22:05:04.637Z,7.91
2019-03-28T22:07:36.988Z,7.86
2019-03-28T22:10:09.538Z,7.83
2019-03-28T22:12:42.091Z,7.81
2019-03-28T22:15:14.377Z,7.81
2019-03-28T22:17:46.687Z,7.80
2019-03-28T22:20:19.180Z,7.78
2019-03-28T22:22:51.531Z,7.74
2019-03-28T22:25:23.839Z,7.71
2019-03-28T22:27:56.206Z,7.67
2019-03-28T22:30:28.469Z,7.63
2019-03-28T22:33:01.155Z,7.62
2019-03-28T22:35:33.512Z,7.60
2019-03-28T22:38:06.295Z,7.56
2019-03-28T22:40:38.792Z,7.52
2019-03-28T22:43:11.572Z,7.49
2019-03-28T22:45:45.036Z,7.49
2019-03-28T22:48:17.859Z,7.47
2019-03-28T22:50:50.380Z,7.44
2019-03-28T22:53:22.998Z,7.40
2019-03-28T22:55:55.261Z,7.37
2019-03-28T22:58:27.539Z,7.36
2019-03-28T23:00:59.888Z,7.34
2019-03-28T23:03:32.622Z,7.32
2019-03-28T23:06:05.175Z,7.31
2019-03-28T23:08:37.534Z,7.30
2019-03-28T23:11:09.885Z,7.29
2019-03-28T23:13:45.178Z,7.28
2019-03-28T23:16:17.567Z,7.26
2019-03-28T23:18:49.873Z,7.22
2019-03-28T23:21:22.163Z,7.20
2019-03-28T23:23:54.525Z,7.16
2019-03-28T23:26:26.888Z,7.13
2019-03-28T23:28:59.334Z,7.08
2019-03-28T23:31:31.728Z,7.06
2019-03-28T23:34:04.221Z,7.01
2019-03-28T23:36:37.005Z,6.99
2019-03-28T23:39:09.374Z,6.98
2019-03-28T23:41:41.891Z,6.97
2019-03-28T23:44:14.198Z,6.96
2019-03-28T23:46:46.839Z,6.93
2019-03-28T23:49:19.486Z,6.91
2019-03-28T23:51:51.820Z,6.89
2019-03-28T23:54:24.175Z,6.88
2019-03-28T23:56:57.369Z,6.86
2019-03-28T23:59:30.142Z,6.82
